Time;durP1;ratioP1;P1;durP2;ratioP2;P2;SDS_P1;SDS_P2;PMS_P1;PMS_P2;Temp;Humidity;BMP_temperature;BMP_pressure;BME280_temperature;BME280_humidity;BME280_pressure;Samples;Min_cycle;Max_cycle;Signal;HPM_P1;HPM_P2
2022/06/21 00:00:48;;;;;;;2.67;2.40;;;;;;;;;;4989975;28;20037;-65
2022/06/21 00:03:17;;;;;;;3.95;2.65;;;;;;;;;;4992711;28;20038;-68
2022/06/21 00:05:44;;;;;;;2.73;2.53;;;;;;;;;;4989375;28;20109;-69
2022/06/21 00:08:18;;;;;;;2.42;2.22;;;;;;;;;;4983389;28;20445;-66
2022/06/21 00:10:43;;;;;;;3.33;2.60;;;;;;;;;;4991198;28;20038;-69
2022/06/21 00:13:14;;;;;;;2.30;2.10;;;;;;;;;;4992952;28;20338;-70
2022/06/21 00:15:40;;;;;;;2.60;2.30;;;;;;;;;;4989416;28;20032;-66
2022/06/21 00:18:08;;;;;;;2.45;2.20;;;;;;;;;;4992086;28;20112;-69
2022/06/21 00:20:33;;;;;;;2.67;2.47;;;;;;;;;;4988956;28;20078;-69
2022/06/21 00:22:59;;;;;;;2.75;2.40;;;;;;;;;;4989740;28;20153;-70
2022/06/21 00:25:26;;;;;;;2.55;2.30;;;;;;;;;;4988604;28;20018;-68
2022/06/21 00:27:52;;;;;;;3.38;2.20;;;;;;;;;;4990767;28;20088;-65
2022/06/21 00:30:18;;;;;;;2.25;2.05;;;;;;;;;;4989802;28;20017;-67
2022/06/21 00:32:44;;;;;;;2.30;2.05;;;;;;;;;;4988333;28;20037;-66
2022/06/21 00:35:11;;;;;;;2.55;2.35;;;;;;;;;;4989456;28;20018;-66
2022/06/21 00:37:36;;;;;;;2.58;2.38;;;;;;;;;;4990404;28;20036;-66
2022/06/21 00:40:05;;;;;;;8.25;2.50;;;;;;;;;;5001958;28;20045;-67
2022/06/21 00:42:31;;;;;;;2.58;2.38;;;;;;;;;;5018361;28;20094;-69
2022/06/21 00:45:13;;;;;;;3.05;2.20;;;;;;;;;;5010784;28;20452;-66
2022/06/21 00:47:48;;;;;;;2.85;2.65;;;;;;;;;;5009279;28;20017;-66
2022/06/21 00:50:23;;;;;;;2.55;2.20;;;;;;;;;;5017320;28;20036;-67
2022/06/21 00:52:58;;;;;;;2.97;2.05;;;;;;;;;;5010590;28;20044;-65
2022/06/21 00:55:40;;;;;;;2.33;2.13;;;;;;;;;;5016195;28;20036;-69
2022/06/21 00:58:07;;;;;;;3.15;2.13;;;;;;;;;;5012760;28;20114;-71
2022/06/21 01:00:34;;;;;;;2.38;2.17;;;;;;;;;;5018532;28;20477;-70
2022/06/21 01:03:02;;;;;;;3.22;2.13;;;;;;;;;;5009114;28;20112;-69
2022/06/21 01:05:30;;;;;;;2.13;2.03;;;;;;;;;;5008981;28;20029;-67
2022/06/21 01:07:57;;;;;;;2.90;2.45;;;;;;;;;;5018961;28;20069;-67
2022/06/21 01:10:23;;;;;;;3.13;2.30;;;;;;;;;;5017393;28;20429;-67
2022/06/21 01:12:51;;;;;;;2.83;2.45;;;;;;;;;;5018162;28;20475;-68
2022/06/21 01:15:21;;;;;;;2.58;2.38;;;;;;;;;;5016377;28;20028;-68
2022/06/21 01:17:48;;;;;;;2.78;1.83;;;;;;;;;;5008966;28;20033;-71
2022/06/21 01:20:19;;;;;;;2.20;2.00;;;;;;;;;;5014520;28;20026;-66
2022/06/21 01:22:50;;;;;;;2.90;2.70;;;;;;;;;;5011888;28;20037;-67
2022/06/21 01:25:16;;;;;;;4.25;1.88;;;;;;;;;;5017792;28;20441;-67
2022/06/21 01:27:41;;;;;;;2.50;2.30;;;;;;;;;;5018305;28;20026;-67
2022/06/21 01:30:07;;;;;;;2.38;2.17;;;;;;;;;;5017629;28;20040;-67
2022/06/21 01:32:32;;;;;;;2.17;2.08;;;;;;;;;;5009999;28;20037;-67
2022/06/21 01:34:58;;;;;;;2.08;1.92;;;;;;;;;;5017395;28;20460;-72
2022/06/21 01:37:25;;;;;;;1.98;1.88;;;;;;;;;;5018184;28;20440;-68
2022/06/21 01:39:50;;;;;;;2.42;2.22;;;;;;;;;;5014205;28;20078;-66
2022/06/21 01:42:21;;;;;;;2.38;2.17;;;;;;;;;;5006545;28;20072;-67
2022/06/21 01:44:49;;;;;;;3.60;2.15;;;;;;;;;;5007831;28;20449;-67
2022/06/21 01:47:17;;;;;;;2.22;2.13;;;;;;;;;;5007077;28;20065;-66
2022/06/21 01:49:47;;;;;;;2.13;2.03;;;;;;;;;;5007982;28;20091;-66
2022/06/21 01:52:15;;;;;;;2.53;2.33;;;;;;;;;;5012271;28;20034;-65
2022/06/21 01:54:43;;;;;;;2.30;2.20;;;;;;;;;;5012220;28;20034;-70
2022/06/21 01:57:09;;;;;;;2.22;2.03;;;;;;;;;;5011735;28;20033;-69
2022/06/21 01:59:38;;;;;;;2.17;1.98;;;;;;;;;;5013694;28;20045;-67
2022/06/21 02:02:12;;;;;;;2.17;1.92;;;;;;;;;;5014244;28;20069;-66
2022/06/21 02:04:50;;;;;;;3.33;2.55;;;;;;;;;;5007403;28;20079;-69
2022/06/21 02:07:18;;;;;;;2.45;2.25;;;;;;;;;;5016054;28;20456;-69
2022/06/21 02:09:45;;;;;;;2.38;2.17;;;;;;;;;;5014786;28;20033;-71
2022/06/21 02:12:12;;;;;;;2.15;1.95;;;;;;;;;;5017189;28;20466;-72
2022/06/21 02:14:43;;;;;;;2.58;1.90;;;;;;;;;;5016490;28;21059;-66
2022/06/21 02:17:08;;;;;;;3.00;2.08;;;;;;;;;;5015394;28;20144;-66
2022/06/21 02:19:40;;;;;;;2.72;2.10;;;;;;;;;;5012790;28;20441;-69
2022/06/21 02:22:10;;;;;;;2.00;1.90;;;;;;;;;;5008555;28;20409;-66
2022/06/21 02:24:35;;;;;;;2.75;2.20;;;;;;;;;;5011484;28;20033;-66
2022/06/21 02:27:01;;;;;;;2.30;2.13;;;;;;;;;;5013205;28;21103;-66
2022/06/21 02:29:28;;;;;;;2.10;2.00;;;;;;;;;;5014226;28;20021;-68
2022/06/21 02:31:53;;;;;;;2.00;1.60;;;;;;;;;;5011961;28;20048;-68
2022/06/21 02:34:20;;;;;;;2.03;1.83;;;;;;;;;;5012087;28;20017;-66
2022/06/21 02:36:50;;;;;;;2.50;2.30;;;;;;;;;;5012717;28;20041;-66
2022/06/21 02:39:15;;;;;;;;;;;;;;;;;;5016617;28;20030;-71
2022/06/21 02:41:42;;;;;;;2.47;2.00;;;;;;;;;;5016175;28;20355;-66
2022/06/21 02:44:17;;;;;;;2.42;2.22;;;;;;;;;;5010825;28;20022;-68
2022/06/21 02:46:48;;;;;;;2.05;1.95;;;;;;;;;;5013399;28;20032;-67
2022/06/21 02:49:24;;;;;;;2.28;2.13;;;;;;;;;;5011880;28;20088;-66
2022/06/21 02:52:01;;;;;;;2.35;2.20;;;;;;;;;;5007153;28;20037;-66
2022/06/21 02:54:35;;;;;;;2.28;2.10;;;;;;;;;;5010903;28;20451;-66
2022/06/21 02:57:01;;;;;;;2.35;2.15;;;;;;;;;;5011300;28;20030;-67
2022/06/21 02:59:27;;;;;;;3.70;2.63;;;;;;;;;;5011659;28;20086;-66
2022/06/21 03:02:04;;;;;;;2.00;1.90;;;;;;;;;;5019653;28;20364;-67
2022/06/21 03:04:47;;;;;;;2.58;2.35;;;;;;;;;;5012204;28;20665;-68
2022/06/21 03:07:15;;;;;;;2.40;2.15;;;;;;;;;;5009502;28;20029;-68
2022/06/21 03:09:40;;;;;;;1.92;1.83;;;;;;;;;;5011702;28;20097;-66
2022/06/21 03:12:07;;;;;;;2.33;2.13;;;;;;;;;;5010141;28;20038;-67
2022/06/21 03:14:34;;;;;;;2.17;2.00;;;;;;;;;;5015126;28;20344;-69
2022/06/21 03:17:01;;;;;;;2.35;2.20;;;;;;;;;;5008229;28;20025;-65
2022/06/21 03:19:29;;;;;;;2.22;2.08;;;;;;;;;;5013276;28;20021;-70
2022/06/21 03:21:54;;;;;;;2.22;2.13;;;;;;;;;;5009851;28;20041;-67
2022/06/21 03:24:21;;;;;;;3.50;2.15;;;;;;;;;;5008891;28;20037;-71
2022/06/21 03:26:50;;;;;;;2.47;2.28;;;;;;;;;;5008456;28;20445;-71
2022/06/21 03:29:15;;;;;;;2.60;2.40;;;;;;;;;;5011776;28;20433;-67
2022/06/21 03:31:43;;;;;;;1.90;1.80;;;;;;;;;;5015247;28;20030;-67
2022/06/21 03:34:16;;;;;;;2.78;2.10;;;;;;;;;;5007154;28;20087;-69
2022/06/21 03:36:42;;;;;;;2.30;2.10;;;;;;;;;;5007055;28;20029;-66
2022/06/21 03:39:13;;;;;;;2.70;2.08;;;;;;;;;;5010221;28;20340;-67
2022/06/21 03:41:43;;;;;;;2.35;1.80;;;;;;;;;;5003257;28;20041;-65
2022/06/21 03:44:24;;;;;;;3.25;2.40;;;;;;;;;;5019650;28;20480;-66
2022/06/21 03:46:49;;;;;;;3.55;2.30;;;;;;;;;;5021144;28;20413;-69
2022/06/21 03:49:20;;;;;;;2.47;2.28;;;;;;;;;;5018641;28;20039;-67
2022/06/21 03:51:47;;;;;;;4.88;2.30;;;;;;;;;;5013144;28;20431;-67
2022/06/21 03:54:17;;;;;;;2.55;2.35;;;;;;;;;;5008604;28;20464;-66
2022/06/21 03:56:49;;;;;;;2.28;2.17;;;;;;;;;;5015840;28;20036;-66
2022/06/21 03:59:14;;;;;;;2.47;2.28;;;;;;;;;;5018898;28;20403;-65
2022/06/21 04:01:43;;;;;;;2.55;2.35;;;;;;;;;;5017559;28;20050;-66
2022/06/21 04:04:25;;;;;;;2.30;2.10;;;;;;;;;;5019383;28;20029;-67
2022/06/21 04:06:56;;;;;;;2.88;2.67;;;;;;;;;;5019992;28;20157;-69
2022/06/21 04:09:34;;;;;;;3.08;2.53;;;;;;;;;;5007548;28;20109;-67
2022/06/21 04:12:06;;;;;;;2.60;2.40;;;;;;;;;;5014160;28;20798;-66
2022/06/21 04:14:44;;;;;;;2.75;2.20;;;;;;;;;;5012921;28;20029;-67
2022/06/21 04:17:14;;;;;;;2.60;2.40;;;;;;;;;;5004209;28;20063;-71
2022/06/21 04:19:42;;;;;;;2.67;2.40;;;;;;;;;;5004877;28;20072;-66
2022/06/21 04:22:08;;;;;;;2.40;2.25;;;;;;;;;;5007440;28;20108;-68
2022/06/21 04:24:43;;;;;;;2.78;2.25;;;;;;;;;;5007071;28;20124;-65
2022/06/21 04:27:21;;;;;;;2.30;2.10;;;;;;;;;;5019801;28;20035;-68
2022/06/21 04:29:52;;;;;;;2.72;2.53;;;;;;;;;;5018505;28;20037;-70
2022/06/21 04:32:36;;;;;;;8.45;2.35;;;;;;;;;;5000924;28;20407;-65
2022/06/21 04:35:15;;;;;;;2.03;1.90;;;;;;;;;;5019013;28;20037;-68
2022/06/21 04:37:46;;;;;;;2.72;2.00;;;;;;;;;;5016897;28;20048;-65
2022/06/21 04:40:23;;;;;;;2.30;2.10;;;;;;;;;;5013738;28;20057;-68
2022/06/21 04:43:12;;;;;;;2.50;2.30;;;;;;;;;;5003852;28;20457;-69
2022/06/21 04:45:40;;;;;;;3.13;2.30;;;;;;;;;;5004507;28;20132;-64
2022/06/21 04:48:24;;;;;;;2.67;2.47;;;;;;;;;;5007285;28;20029;-67
2022/06/21 04:50:59;;;;;;;4.68;2.45;;;;;;;;;;5010657;28;20352;-66
2022/06/21 04:53:27;;;;;;;2.60;2.40;;;;;;;;;;5007274;28;20026;-67
2022/06/21 04:56:06;;;;;;;5.70;2.58;;;;;;;;;;5009121;28;20022;-66
2022/06/21 04:58:31;;;;;;;3.63;2.43;;;;;;;;;;5011385;28;20029;-70
2022/06/21 05:00:58;;;;;;;4.32;2.30;;;;;;;;;;5007889;28;20028;-69
2022/06/21 05:03:26;;;;;;;5.03;1.98;;;;;;;;;;5006690;28;20449;-65
2022/06/21 05:05:51;;;;;;;2.47;2.28;;;;;;;;;;5010087;28;20395;-67
2022/06/21 05:08:19;;;;;;;2.55;1.88;;;;;;;;;;5015220;28;20521;-66
2022/06/21 05:10:47;;;;;;;2.35;2.00;;;;;;;;;;5011869;28;20025;-67
2022/06/21 05:13:21;;;;;;;2.58;2.22;;;;;;;;;;5009340;28;20033;-70
2022/06/21 05:15:47;;;;;;;2.85;2.20;;;;;;;;;;5010779;28;20494;-65
2022/06/21 05:18:15;;;;;;;2.97;2.67;;;;;;;;;;5005318;28;20117;-71
2022/06/21 05:20:43;;;;;;;2.60;2.40;;;;;;;;;;5006298;28;20136;-65
2022/06/21 05:23:10;;;;;;;2.30;2.10;;;;;;;;;;5009574;28;20112;-65
2022/06/21 05:25:43;;;;;;;2.80;2.60;;;;;;;;;;5010740;28;20464;-66
2022/06/21 05:28:12;;;;;;;2.50;2.40;;;;;;;;;;5010770;28;20356;-69
2022/06/21 05:31:09;;;;;;;3.13;2.65;;;;;;;;;;5014957;28;20349;-66
2022/06/21 05:33:38;;;;;;;2.50;2.28;;;;;;;;;;4993094;28;20364;-66
2022/06/21 05:36:07;;;;;;;2.72;1.98;;;;;;;;;;5016840;28;20432;-68
2022/06/21 05:38:35;;;;;;;3.33;2.22;;;;;;;;;;5013934;28;20113;-69
2022/06/21 05:41:04;;;;;;;2.67;2.00;;;;;;;;;;5011810;28;20057;-65
2022/06/21 05:43:39;;;;;;;2.25;2.05;;;;;;;;;;5012684;28;20056;-68
2022/06/21 05:46:10;;;;;;;2.30;2.10;;;;;;;;;;5010267;28;20021;-67
2022/06/21 05:48:36;;;;;;;2.10;2.00;;;;;;;;;;5008254;28;20063;-71
2022/06/21 05:51:03;;;;;;;2.30;2.15;;;;;;;;;;5008025;28;20025;-67
2022/06/21 05:53:31;;;;;;;2.08;1.90;;;;;;;;;;5012225;28;20069;-64
2022/06/21 05:55:59;;;;;;;2.25;2.15;;;;;;;;;;5010965;28;20037;-69
2022/06/21 05:58:32;;;;;;;2.40;2.20;;;;;;;;;;5009276;28;20063;-65
2022/06/21 06:01:09;;;;;;;3.03;2.22;;;;;;;;;;5009721;28;20083;-71
2022/06/21 06:03:43;;;;;;;2.30;2.08;;;;;;;;;;5007984;28;20099;-71
2022/06/21 06:06:13;;;;;;;2.47;2.30;;;;;;;;;;5006165;28;20026;-66
2022/06/21 06:08:40;;;;;;;2.90;2.15;;;;;;;;;;5007840;28;21084;-66
2022/06/21 06:11:10;;;;;;;2.75;2.10;;;;;;;;;;5007185;28;20033;-70
2022/06/21 06:13:38;;;;;;;4.63;2.60;;;;;;;;;;5010329;28;20116;-67
2022/06/21 06:16:12;;;;;;;2.55;2.33;;;;;;;;;;5010221;28;20031;-68
2022/06/21 06:18:44;;;;;;;3.00;2.80;;;;;;;;;;5008651;28;20029;-71
2022/06/21 06:21:19;;;;;;;2.78;2.58;;;;;;;;;;5009423;28;20476;-68
2022/06/21 06:23:52;;;;;;;3.13;2.92;;;;;;;;;;5009181;28;20021;-65
2022/06/21 06:26:21;;;;;;;3.10;2.90;;;;;;;;;;5008782;28;20400;-65
2022/06/21 06:28:53;;;;;;;3.13;2.83;;;;;;;;;;5008257;28;20433;-65
2022/06/21 06:31:34;;;;;;;3.05;2.70;;;;;;;;;;5008887;28;20029;-67
2022/06/21 06:34:05;;;;;;;3.55;3.25;;;;;;;;;;5007370;28;20063;-71
2022/06/21 06:36:37;;;;;;;3.20;2.90;;;;;;;;;;5006296;28;20033;-66
2022/06/21 06:39:04;;;;;;;3.20;2.90;;;;;;;;;;5008079;28;20025;-65
2022/06/21 06:41:31;;;;;;;3.15;2.85;;;;;;;;;;5009377;28;20021;-68
2022/06/21 06:43:59;;;;;;;3.67;3.33;;;;;;;;;;5006356;28;20044;-65
2022/06/21 06:46:33;;;;;;;3.55;3.13;;;;;;;;;;5006264;28;20368;-70
2022/06/21 06:49:06;;;;;;;3.50;3.20;;;;;;;;;;5006781;28;20341;-66
2022/06/21 06:51:31;;;;;;;3.45;3.15;;;;;;;;;;5006615;28;20187;-71
2022/06/21 06:53:59;;;;;;;4.40;3.42;;;;;;;;;;5008191;28;20108;-67
2022/06/21 06:56:27;;;;;;;3.97;3.55;;;;;;;;;;5008620;28;20018;-67
2022/06/21 06:58:58;;;;;;;7.70;4.20;;;;;;;;;;5008988;28;20021;-71
2022/06/21 07:01:28;;;;;;;5.20;3.85;;;;;;;;;;5006513;28;20286;-71
2022/06/21 07:03:58;;;;;;;4.60;4.00;;;;;;;;;;5007895;28;20045;-68
2022/06/21 07:06:42;;;;;;;5.10;3.35;;;;;;;;;;5005510;28;20447;-68
2022/06/21 07:09:19;;;;;;;4.05;3.65;;;;;;;;;;5006389;28;20031;-70
2022/06/21 07:11:49;;;;;;;5.53;3.80;;;;;;;;;;5008371;28;20059;-68
2022/06/21 07:14:14;;;;;;;;;;;;;;;;;;5010043;28;20021;-71
2022/06/21 07:16:40;;;;;;;7.27;4.80;;;;;;;;;;5005684;28;20279;-66
2022/06/21 07:19:08;;;;;;;7.55;5.30;;;;;;;;;;5008840;28;20730;-68
2022/06/21 07:21:33;;;;;;;5.82;4.90;;;;;;;;;;5012978;28;20481;-66
2022/06/21 07:23:59;;;;;;;8.40;5.43;;;;;;;;;;5006069;28;20026;-67
2022/06/21 07:26:32;;;;;;;6.30;4.75;;;;;;;;;;5006127;28;20468;-70
2022/06/21 07:29:02;;;;;;;6.05;5.20;;;;;;;;;;5006701;28;20399;-67
2022/06/21 07:31:39;;;;;;;6.07;5.45;;;;;;;;;;5010230;28;20040;-71
2022/06/21 07:34:24;;;;;;;10.77;6.07;;;;;;;;;;5007709;28;20025;-65
2022/06/21 07:36:55;;;;;;;8.02;6.00;;;;;;;;;;5007983;28;20062;-67
2022/06/21 07:39:21;;;;;;;7.47;5.25;;;;;;;;;;5007948;28;20049;-67
2022/06/21 07:41:49;;;;;;;7.65;5.45;;;;;;;;;;5007563;28;20453;-65
2022/06/21 07:44:34;;;;;;;7.65;5.50;;;;;;;;;;5004690;28;20155;-68
2022/06/21 07:47:02;;;;;;;6.40;5.30;;;;;;;;;;4996651;28;20470;-66
2022/06/21 07:49:33;;;;;;;7.68;5.55;;;;;;;;;;5007712;28;20025;-68
2022/06/21 07:52:00;;;;;;;7.53;5.97;;;;;;;;;;5006376;28;20037;-72
2022/06/21 07:54:30;;;;;;;6.60;5.88;;;;;;;;;;5005279;28;20029;-65
2022/06/21 07:57:12;;;;;;;8.23;6.28;;;;;;;;;;5007716;28;20033;-65
2022/06/21 07:59:39;;;;;;;7.05;5.80;;;;;;;;;;5005305;28;20051;-69
2022/06/21 08:07:50;;;;;;;7.82;5.60;;;;;;;;;;5008848;28;20369;-69
2022/06/21 08:10:18;;;;;;;6.10;4.80;;;;;;;;;;5007537;28;20021;-71
2022/06/21 08:12:43;;;;;;;4.68;4.20;;;;;;;;;;5004647;28;20034;-67
2022/06/21 08:15:09;;;;;;;4.55;3.78;;;;;;;;;;5004482;28;20037;-67
2022/06/21 08:17:51;;;;;;;4.30;3.90;;;;;;;;;;5011309;28;20109;-67
2022/06/21 08:20:25;;;;;;;4.15;3.85;;;;;;;;;;5012091;28;20094;-67
2022/06/21 08:22:57;;;;;;;7.63;4.35;;;;;;;;;;5014981;28;20091;-66
2022/06/21 08:25:29;;;;;;;4.20;3.90;;;;;;;;;;5012096;28;20021;-66
2022/06/21 08:27:57;;;;;;;5.20;4.63;;;;;;;;;;5009869;28;20029;-69
2022/06/21 08:30:35;;;;;;;4.95;4.45;;;;;;;;;;5012677;28;20021;-68
2022/06/21 08:33:06;;;;;;;5.38;4.88;;;;;;;;;;5013345;28;20445;-67
2022/06/21 08:35:39;;;;;;;6.13;4.82;;;;;;;;;;5011513;28;20022;-66
2022/06/21 08:38:04;;;;;;;4.80;4.40;;;;;;;;;;5012623;28;20326;-66
2022/06/21 08:40:45;;;;;;;5.68;4.60;;;;;;;;;;5010612;28;20050;-66
2022/06/21 08:43:13;;;;;;;4.75;4.28;;;;;;;;;;5012350;28;21401;-67
2022/06/21 08:46:04;;;;;;;5.72;4.82;;;;;;;;;;5011220;28;20065;-68
2022/06/21 08:48:33;;;;;;;8.02;5.55;;;;;;;;;;5011607;28;20115;-66
2022/06/21 08:51:07;;;;;;;6.65;4.85;;;;;;;;;;5014664;28;20033;-67
2022/06/21 08:53:33;;;;;;;6.97;4.72;;;;;;;;;;5012351;28;20388;-65
2022/06/21 08:56:04;;;;;;;7.45;5.07;;;;;;;;;;5013608;28;20506;-67
2022/06/21 08:58:50;;;;;;;7.72;5.55;;;;;;;;;;5008115;28;20108;-67
2022/06/21 09:01:31;;;;;;;6.70;5.40;;;;;;;;;;5014792;28;20090;-67
2022/06/21 09:03:56;;;;;;;13.43;6.00;;;;;;;;;;5014777;28;20038;-72
2022/06/21 09:06:32;;;;;;;5.68;5.10;;;;;;;;;;5014352;28;20095;-69
2022/06/21 09:09:10;;;;;;;6.40;4.80;;;;;;;;;;5016321;28;20499;-67
2022/06/21 09:11:38;;;;;;;8.55;5.07;;;;;;;;;;5016763;28;20068;-67
2022/06/21 09:14:09;;;;;;;5.43;5.03;;;;;;;;;;5014886;28;20452;-68
2022/06/21 09:16:40;;;;;;;6.07;5.13;;;;;;;;;;5014478;28;20025;-67
2022/06/21 09:19:09;;;;;;;5.40;4.90;;;;;;;;;;5014945;28;20342;-66
2022/06/21 09:21:52;;;;;;;6.40;4.97;;;;;;;;;;5011263;28;20037;-67
2022/06/21 09:24:31;;;;;;;7.13;4.88;;;;;;;;;;5009904;28;20029;-69
2022/06/21 09:26:56;;;;;;;;;;;;;;;;;;5011294;28;20039;-66
2022/06/21 09:29:21;;;;;;;12.13;5.40;;;;;;;;;;5011275;28;19921;-66
2022/06/21 09:32:05;;;;;;;5.60;5.10;;;;;;;;;;5013147;28;20049;-67
2022/06/21 09:34:40;;;;;;;5.93;5.30;;;;;;;;;;5008904;28;20448;-67
2022/06/21 09:37:12;;;;;;;6.10;5.10;;;;;;;;;;5005625;28;20029;-66
2022/06/21 09:39:41;;;;;;;6.50;5.22;;;;;;;;;;5005186;28;20046;-65
2022/06/21 09:42:18;;;;;;;5.97;5.38;;;;;;;;;;5006847;28;20030;-65
2022/06/21 09:44:50;;;;;;;5.55;5.05;;;;;;;;;;5003933;28;20029;-65
2022/06/21 09:47:22;;;;;;;5.78;5.20;;;;;;;;;;5008594;28;20112;-67
2022/06/21 09:50:04;;;;;;;5.78;5.28;;;;;;;;;;5007593;28;21050;-70
2022/06/21 09:52:48;;;;;;;6.60;4.82;;;;;;;;;;5012981;28;20137;-67
2022/06/21 09:55:32;;;;;;;6.30;5.63;;;;;;;;;;5007549;28;20034;-66
2022/06/21 09:58:00;;;;;;;5.70;5.20;;;;;;;;;;5008615;28;20022;-69
2022/06/21 10:00:44;;;;;;;6.77;5.67;;;;;;;;;;5005583;28;20034;-67
2022/06/21 10:03:17;;;;;;;6.45;5.93;;;;;;;;;;5009467;28;20048;-66
2022/06/21 10:05:53;;;;;;;6.60;6.00;;;;;;;;;;5009406;28;20025;-66
2022/06/21 10:08:22;;;;;;;10.43;6.90;;;;;;;;;;5008012;28;20112;-68
2022/06/21 10:10:48;;;;;;;6.88;6.03;;;;;;;;;;5009620;28;20352;-65
2022/06/21 10:13:19;;;;;;;6.72;6.10;;;;;;;;;;5011277;28;20037;-70
2022/06/21 10:15:54;;;;;;;7.60;6.80;;;;;;;;;;5009909;28;20029;-69
2022/06/21 10:18:34;;;;;;;9.13;6.43;;;;;;;;;;5012463;28;20033;-65
2022/06/21 10:21:08;;;;;;;7.40;6.70;;;;;;;;;;5014853;28;20400;-68
2022/06/21 10:23:45;;;;;;;7.85;7.10;;;;;;;;;;5014023;28;20723;-67
2022/06/21 10:26:23;;;;;;;8.52;6.60;;;;;;;;;;5015342;28;20032;-66
2022/06/21 10:29:07;;;;;;;10.35;7.03;;;;;;;;;;5011994;28;20025;-67
2022/06/21 10:31:43;;;;;;;9.85;7.72;;;;;;;;;;5015315;28;20045;-70
2022/06/21 10:34:36;;;;;;;7.57;6.82;;;;;;;;;;5009522;28;20017;-68
2022/06/21 10:37:20;;;;;;;8.55;7.03;;;;;;;;;;5006391;28;20060;-66
2022/06/21 10:39:51;;;;;;;7.88;7.07;;;;;;;;;;5009420;28;20049;-66
2022/06/21 10:45:19;;;;;;;7.50;6.70;;;;;;;;;;5015519;28;20091;-67
2022/06/21 10:48:03;;;;;;;7.15;6.30;;;;;;;;;;5019209;28;20028;-70
2022/06/21 10:50:31;;;;;;;7.75;6.75;;;;;;;;;;5018209;28;20527;-69
2022/06/21 10:53:08;;;;;;;16.20;7.55;;;;;;;;;;5022775;28;20044;-70
2022/06/21 10:55:42;;;;;;;12.52;6.78;;;;;;;;;;5022790;28;20049;-69
2022/06/21 10:58:10;;;;;;;9.48;6.90;;;;;;;;;;5018020;28;20507;-67
2022/06/21 11:03:50;;;;;;;7.07;6.40;;;;;;;;;;5020298;28;20043;-69
2022/06/21 11:06:15;;;;;;;9.82;6.65;;;;;;;;;;5019192;28;20060;-72
2022/06/21 11:08:47;;;;;;;8.48;6.57;;;;;;;;;;5020625;28;20069;-71
2022/06/21 11:11:21;;;;;;;6.97;6.25;;;;;;;;;;5019639;28;20032;-66
2022/06/21 11:14:10;;;;;;;7.65;6.05;;;;;;;;;;5021969;28;20044;-70
2022/06/21 11:16:38;;;;;;;8.20;6.10;;;;;;;;;;5020410;28;20026;-72
2022/06/21 11:19:15;;;;;;;7.82;6.30;;;;;;;;;;5017767;28;20029;-66
2022/06/21 11:21:43;;;;;;;6.40;5.80;;;;;;;;;;5019949;28;20075;-68
2022/06/21 11:24:27;;;;;;;7.05;5.40;;;;;;;;;;5019637;28;20029;-66
2022/06/21 11:27:09;;;;;;;6.30;5.70;;;;;;;;;;5021205;28;20520;-68
2022/06/21 11:29:37;;;;;;;6.20;5.40;;;;;;;;;;5019925;28;20510;-70
2022/06/21 11:32:14;;;;;;;6.13;5.50;;;;;;;;;;5018553;28;20112;-67
2022/06/21 11:35:02;;;;;;;6.60;4.93;;;;;;;;;;5020792;28;20043;-66
2022/06/21 11:37:30;;;;;;;5.50;4.93;;;;;;;;;;5021137;28;20338;-67
2022/06/21 11:40:18;;;;;;;6.07;5.15;;;;;;;;;;5018962;28;20045;-67
2022/06/21 11:42:49;;;;;;;6.75;5.00;;;;;;;;;;5018058;28;20738;-69
2022/06/21 11:45:14;;;;;;;6.82;4.43;;;;;;;;;;5020850;28;20029;-71
2022/06/21 11:47:42;;;;;;;6.45;4.57;;;;;;;;;;5020525;28;20437;-69
2022/06/21 11:50:13;;;;;;;7.00;4.97;;;;;;;;;;5019419;28;20101;-68
2022/06/21 11:52:39;;;;;;;8.00;4.70;;;;;;;;;;5017337;28;20120;-66
2022/06/21 11:55:23;;;;;;;6.70;4.38;;;;;;;;;;5017420;28;20117;-68
2022/06/21 11:57:57;;;;;;;4.90;4.38;;;;;;;;;;5020128;28;20029;-67
2022/06/21 12:00:26;;;;;;;6.53;4.57;;;;;;;;;;5015419;28;20807;-68
2022/06/21 12:02:55;;;;;;;6.68;5.13;;;;;;;;;;5020603;28;20044;-72
2022/06/21 12:05:39;;;;;;;6.50;5.05;;;;;;;;;;5017675;28;20038;-69
2022/06/21 12:08:23;;;;;;;9.95;4.90;;;;;;;;;;5019410;28;20021;-68
2022/06/21 12:10:51;;;;;;;8.98;4.95;;;;;;;;;;5019504;28;20025;-68
2022/06/21 12:13:16;;;;;;;5.15;4.32;;;;;;;;;;5019507;28;20068;-67
2022/06/21 12:15:51;;;;;;;7.22;4.45;;;;;;;;;;5019324;28;20065;-66
2022/06/21 12:18:17;;;;;;;5.03;4.15;;;;;;;;;;5018342;28;20723;-66
2022/06/21 12:20:58;;;;;;;6.25;4.10;;;;;;;;;;5019815;28;20408;-71
2022/06/21 12:23:44;;;;;;;5.53;4.60;;;;;;;;;;5018566;28;20031;-69
2022/06/21 12:26:23;;;;;;;8.60;4.47;;;;;;;;;;5019543;28;20109;-68
2022/06/21 12:28:49;;;;;;;7.18;5.03;;;;;;;;;;5018440;28;20075;-70
2022/06/21 12:31:42;;;;;;;4.68;4.13;;;;;;;;;;5016161;28;20060;-67
2022/06/21 12:34:11;;;;;;;5.05;4.50;;;;;;;;;;4982210;28;20360;-72
2022/06/21 12:36:43;;;;;;;6.32;4.18;;;;;;;;;;5000916;28;20032;-68
2022/06/21 12:39:17;;;;;;;5.63;4.30;;;;;;;;;;5019507;28;20028;-67
2022/06/21 12:41:56;;;;;;;6.35;4.45;;;;;;;;;;5012168;28;20042;-67
2022/06/21 12:44:31;;;;;;;6.63;4.10;;;;;;;;;;5013379;28;20026;-70
2022/06/21 12:47:10;;;;;;;4.95;4.25;;;;;;;;;;5012810;28;20084;-69
2022/06/21 12:49:54;;;;;;;5.38;3.80;;;;;;;;;;5012506;28;20397;-69
2022/06/21 12:52:28;;;;;;;4.53;3.75;;;;;;;;;;5014971;28;20025;-68
2022/06/21 12:54:53;;;;;;;4.50;3.65;;;;;;;;;;5011863;28;20030;-68
2022/06/21 12:57:37;;;;;;;7.20;4.30;;;;;;;;;;5013532;28;20045;-68
2022/06/21 13:00:14;;;;;;;6.68;3.78;;;;;;;;;;5014656;28;20026;-71
2022/06/21 13:02:39;;;;;;;8.13;4.00;;;;;;;;;;5012128;28;20040;-69
2022/06/21 13:05:24;;;;;;;5.47;3.78;;;;;;;;;;5015722;28;20025;-68
2022/06/21 13:08:17;;;;;;;5.55;3.65;;;;;;;;;;5011766;28;20025;-72
2022/06/21 13:10:47;;;;;;;6.00;3.60;;;;;;;;;;5015816;28;20083;-70
2022/06/21 13:13:18;;;;;;;4.65;4.18;;;;;;;;;;5014519;28;20083;-67
2022/06/21 13:16:01;;;;;;;7.03;4.25;;;;;;;;;;5015239;28;20364;-67
2022/06/21 13:18:32;;;;;;;5.90;4.32;;;;;;;;;;5010358;28;20025;-67
2022/06/21 13:21:17;;;;;;;8.05;3.50;;;;;;;;;;5010728;28;20029;-71
2022/06/21 13:23:43;;;;;;;9.02;3.90;;;;;;;;;;5010749;28;20042;-70
2022/06/21 13:26:20;;;;;;;5.43;3.93;;;;;;;;;;5007687;28;20053;-67
2022/06/21 13:29:05;;;;;;;6.03;4.10;;;;;;;;;;5006546;28;20270;-68
2022/06/21 13:31:33;;;;;;;6.30;3.85;;;;;;;;;;5007844;28;20361;-68
2022/06/21 13:34:05;;;;;;;4.07;3.70;;;;;;;;;;5026523;28;20391;-68
2022/06/21 13:36:36;;;;;;;7.35;3.47;;;;;;;;;;5010598;28;20044;-66
2022/06/21 13:39:20;;;;;;;6.50;3.70;;;;;;;;;;5011101;28;20044;-67
2022/06/21 13:44:42;;;;;;;5.43;3.58;;;;;;;;;;5016072;28;20056;-70
2022/06/21 13:47:18;;;;;;;7.18;3.60;;;;;;;;;;5009945;28;21065;-67
2022/06/21 13:49:49;;;;;;;4.25;3.35;;;;;;;;;;5018453;28;20040;-70
2022/06/21 13:52:24;;;;;;;4.57;3.25;;;;;;;;;;5021403;28;20038;-70
2022/06/21 13:54:53;;;;;;;6.45;3.53;;;;;;;;;;5021677;28;20091;-71
2022/06/21 13:57:36;;;;;;;3.20;2.90;;;;;;;;;;5015821;28;20022;-67
2022/06/21 14:00:04;;;;;;;5.95;3.78;;;;;;;;;;5011424;28;20021;-68
2022/06/21 14:02:41;;;;;;;5.55;3.40;;;;;;;;;;5010569;28;20029;-68
2022/06/21 14:05:24;;;;;;;6.88;3.67;;;;;;;;;;4992173;28;20376;-69
2022/06/21 14:07:56;;;;;;;7.57;3.50;;;;;;;;;;5008104;28;20087;-70
2022/06/21 14:10:27;;;;;;;5.28;3.90;;;;;;;;;;5019061;28;20018;-69
2022/06/21 14:13:11;;;;;;;5.75;3.35;;;;;;;;;;5018380;28;20099;-68
2022/06/21 14:15:36;;;;;;;8.60;4.55;;;;;;;;;;5021434;28;20025;-68
2022/06/21 14:18:02;;;;;;;8.35;4.47;;;;;;;;;;5011573;28;20037;-69
2022/06/21 14:20:44;;;;;;;6.63;3.60;;;;;;;;;;5019417;28;20330;-66
2022/06/21 14:23:18;;;;;;;4.55;3.35;;;;;;;;;;5020796;28;20290;-69
2022/06/21 14:25:56;;;;;;;5.82;3.95;;;;;;;;;;5021166;28;20041;-72
2022/06/21 14:28:35;;;;;;;8.23;3.38;;;;;;;;;;5006613;28;20033;-69
2022/06/21 14:31:00;;;;;;;6.15;3.60;;;;;;;;;;5005754;28;20033;-68
2022/06/21 14:33:44;;;;;;;5.47;3.70;;;;;;;;;;5009490;28;20051;-68
2022/06/21 14:36:16;;;;;;;4.70;3.67;;;;;;;;;;5009297;28;20262;-68
2022/06/21 14:38:44;;;;;;;6.53;4.03;;;;;;;;;;4990214;28;20033;-70
2022/06/21 14:41:20;;;;;;;5.43;3.80;;;;;;;;;;5009662;28;20084;-66
2022/06/21 14:43:45;;;;;;;7.03;4.03;;;;;;;;;;5010714;28;20044;-72
2022/06/21 14:46:16;;;;;;;4.15;3.72;;;;;;;;;;5008168;28;20029;-71
2022/06/21 14:48:41;;;;;;;7.40;3.95;;;;;;;;;;5008691;28;20124;-69
2022/06/21 14:51:33;;;;;;;8.05;4.50;;;;;;;;;;5005555;28;20124;-67
2022/06/21 14:54:01;;;;;;;8.70;4.65;;;;;;;;;;5004426;28;20407;-72
2022/06/21 14:56:47;;;;;;;6.00;4.15;;;;;;;;;;5007244;28;20025;-69
2022/06/21 14:59:12;;;;;;;6.00;3.90;;;;;;;;;;5011001;28;20030;-70
2022/06/21 15:01:40;;;;;;;6.30;3.97;;;;;;;;;;5017430;28;20048;-71
2022/06/21 15:04:17;;;;;;;4.63;3.77;;;;;;;;;;5031779;28;20345;-67
2022/06/21 15:06:43;;;;;;;6.60;3.47;;;;;;;;;;5015099;28;20025;-69
2022/06/21 15:09:19;;;;;;;4.05;3.65;;;;;;;;;;5009937;28;20452;-69
2022/06/21 15:11:53;;;;;;;5.10;4.63;;;;;;;;;;5006296;28;20021;-69
2022/06/21 15:14:35;;;;;;;6.35;4.10;;;;;;;;;;5007589;28;20021;-67
2022/06/21 15:17:19;;;;;;;5.00;3.70;;;;;;;;;;5005687;28;20498;-69
2022/06/21 15:19:59;;;;;;;7.05;4.00;;;;;;;;;;5005878;28;20009;-69
2022/06/21 15:22:32;;;;;;;6.10;4.10;;;;;;;;;;5006814;28;20040;-67
2022/06/21 15:25:00;;;;;;;4.95;3.58;;;;;;;;;;5006214;28;20108;-67
2022/06/21 15:27:28;;;;;;;6.18;4.35;;;;;;;;;;5010488;28;20044;-70